createdAt,value
2023-04-11T04:23:44.293Z,100.00
2023-04-11T04:25:13.235Z,100.00
2023-04-11T04:26:30.138Z,100.00
2023-04-11T04:40:22.867Z,100.00
2023-04-11T04:46:26.689Z,100.00
2023-04-11T04:48:04.606Z,100.00
2023-04-11T04:50:19.977Z,100.00
2023-04-11T04:51:37.329Z,100.00
2023-04-11T05:06:14.378Z,100.00
2023-04-11T05:07:21.756Z,100.00
2023-04-11T05:08:34.785Z,100.00
2023-04-11T05:09:44.261Z,100.00
2023-04-11T05:10:59.753Z,100.00
2023-04-11T05:16:56.952Z,100.00
2023-04-11T05:18:07.538Z,100.00
2023-04-11T05:19:11.140Z,100.00
2023-04-11T05:20:24.594Z,100.00
2023-04-11T05:21:35.759Z,100.00
2023-04-11T05:22:52.431Z,100.00
2023-04-11T05:24:05.007Z,96.41
2023-04-11T05:25:14.960Z,92.75
2023-04-11T05:26:37.469Z,91.07
2023-04-11T05:28:17.675Z,88.46
2023-04-11T05:31:14.963Z,88.08
2023-04-11T05:33:06.958Z,81.58
2023-04-11T05:34:23.687Z,81.57
2023-04-11T05:38:34.878Z,93.37
2023-04-11T05:40:44.317Z,94.09
2023-04-11T05:54:16.719Z,52.51
2023-04-11T05:55:19.124Z,53.85
2023-04-11T05:56:21.029Z,54.63
2023-04-11T05:57:23.635Z,57.36
2023-04-11T05:58:25.808Z,58.46
2023-04-11T05:59:28.978Z,64.17
2023-04-11T06:00:38.691Z,70.34
2023-04-11T06:01:41.101Z,73.98
2023-04-11T06:06:34.710Z,72.31
2023-04-11T06:07:44.150Z,73.79
2023-04-11T06:08:51.387Z,73.52
2023-04-11T06:09:53.484Z,73.37
2023-04-11T06:11:05.043Z,72.18
2023-04-11T06:12:09.464Z,71.34
2023-04-11T06:13:11.471Z,66.54
2023-04-11T06:14:20.475Z,64.77
2023-04-11T06:15:27.294Z,67.75
2023-04-11T06:16:29.676Z,65.25
2023-04-11T06:17:31.758Z,65.68
2023-04-11T06:18:33.614Z,65.25
2023-04-11T06:19:38.498Z,62.96
2023-04-11T06:20:40.600Z,65.08
2023-04-11T06:21:42.471Z,63.69
2023-04-11T06:22:50.808Z,64.76
2023-04-11T06:23:57.122Z,58.50
2023-04-11T06:24:59.212Z,55.18
2023-04-11T06:26:01.215Z,53.63
2023-04-11T06:27:03.691Z,53.24
2023-04-11T06:28:05.854Z,51.54
2023-04-11T06:29:07.768Z,50.01
2023-04-11T06:30:09.991Z,49.87
2023-04-11T06:31:12.094Z,47.68
2023-04-11T06:32:17.259Z,46.76
2023-04-11T06:33:19.264Z,44.59
2023-04-11T06:34:21.400Z,44.27
2023-04-11T06:35:25.082Z,45.10
2023-04-11T06:36:27.511Z,44.11
2023-04-11T06:37:29.521Z,45.27
2023-04-11T06:38:31.445Z,47.30
2023-04-11T06:39:34.541Z,50.01
2023-04-11T06:40:36.659Z,51.60
2023-04-11T06:41:38.453Z,51.63
2023-04-11T06:42:40.453Z,52.48
2023-04-11T06:43:42.333Z,53.27
2023-04-11T06:44:45.938Z,52.97
2023-04-11T06:45:49.685Z,55.83
2023-04-11T06:46:51.766Z,55.69
2023-04-11T06:47:57.985Z,57.09
2023-04-11T06:49:00.001Z,55.99
2023-04-11T06:50:02.061Z,53.79
2023-04-11T06:51:05.845Z,53.23
2023-04-11T06:52:07.844Z,52.39
2023-04-11T06:53:10.211Z,52.15
2023-04-11T06:54:12.012Z,51.01
2023-04-11T06:55:15.639Z,50.93
2023-04-11T06:56:17.657Z,51.80
2023-04-11T06:57:19.538Z,54.80
2023-04-11T06:58:22.577Z,54.38
2023-04-11T06:59:24.855Z,53.98
2023-04-11T07:00:27.303Z,54.03
2023-04-11T07:01:35.675Z,53.69
2023-04-11T07:02:39.369Z,54.27
2023-04-11T07:03:41.515Z,52.27
2023-04-11T07:04:43.650Z,54.85
2023-04-11T07:05:45.766Z,55.86
2023-04-11T07:06:47.966Z,55.73
2023-04-11T07:07:51.240Z,55.09
2023-04-11T07:08:53.058Z,56.02
2023-04-11T07:09:54.872Z,56.20
2023-04-11T07:10:56.997Z,54.63
2023-04-11T07:11:58.846Z,52.65
2023-04-11T07:13:00.814Z,52.41
2023-04-11T07:14:02.724Z,48.70
2023-04-11T07:15:05.413Z,45.90
2023-04-11T07:16:08.074Z,45.07
2023-04-11T07:17:10.016Z,44.34
2023-04-11T07:18:15.448Z,44.53
2023-04-11T07:19:17.520Z,44.50
2023-04-11T07:20:19.559Z,43.72
2023-04-11T07:21:22.201Z,43.30
2023-04-11T07:22:24.077Z,44.96
2023-04-11T07:23:26.508Z,44.86
2023-04-11T07:24:30.545Z,45.65
2023-04-11T07:25:33.950Z,45.30
2023-04-11T07:26:38.762Z,44.82
2023-04-11T07:27:43.867Z,43.68
2023-04-11T07:28:47.481Z,42.99
2023-04-11T07:29:49.623Z,42.11
2023-04-11T07:30:52.116Z,42.07
2023-04-11T07:31:53.987Z,40.84
2023-04-11T07:32:57.252Z,40.59
2023-04-11T07:33:59.201Z,40.58
2023-04-11T07:35:01.202Z,39.98
2023-04-11T07:36:04.133Z,40.25
2023-04-11T07:37:06.482Z,38.70
2023-04-11T07:38:09.533Z,38.55
2023-04-11T07:39:13.588Z,39.98
2023-04-11T07:40:15.657Z,39.35
2023-04-11T07:41:17.706Z,39.49
2023-04-11T07:42:19.487Z,38.94
2023-04-11T07:43:21.549Z,37.62
2023-04-11T07:44:24.002Z,37.04
2023-04-11T07:45:26.108Z,36.95
2023-04-11T07:46:27.891Z,37.01
2023-04-11T07:47:29.682Z,37.31
2023-04-11T07:48:32.284Z,37.16
2023-04-11T07:49:34.388Z,37.41
2023-04-11T07:50:36.391Z,38.14
2023-04-11T07:51:38.547Z,37.59
2023-04-11T07:52:40.516Z,37.79
2023-04-11T07:53:42.397Z,36.61
2023-04-11T07:54:44.381Z,35.33
2023-04-11T07:55:46.220Z,34.99
2023-04-11T07:56:47.980Z,34.53
2023-04-11T07:57:53.379Z,34.06
2023-04-11T07:58:55.207Z,33.97
2023-04-11T07:59:59.882Z,34.53
2023-04-11T08:01:02.726Z,34.23
2023-04-11T08:02:06.592Z,33.65
2023-04-11T08:03:11.310Z,34.62
2023-04-11T08:04:13.825Z,33.66
2023-04-11T08:05:16.138Z,34.83
2023-04-11T08:06:18.081Z,34.13
2023-04-11T08:07:19.879Z,34.49
2023-04-11T08:08:21.936Z,33.03
2023-04-11T08:09:23.780Z,33.83
2023-04-11T08:10:25.844Z,34.13
2023-04-11T08:11:27.775Z,34.54
2023-04-11T08:12:29.637Z,34.61
2023-04-11T08:13:32.137Z,36.66
2023-04-11T08:14:34.080Z,36.56
2023-04-11T08:15:37.141Z,35.82
2023-04-11T08:16:39.112Z,34.99
2023-04-11T08:17:43.819Z,35.01
2023-04-11T08:18:45.891Z,34.76
2023-04-11T08:19:47.949Z,33.62
2023-04-11T08:20:49.884Z,33.15
2023-04-11T08:21:52.767Z,33.10
2023-04-11T08:22:55.893Z,33.37
2023-04-11T08:23:57.979Z,34.85
2023-04-11T08:25:00.006Z,35.24
2023-04-11T08:26:01.782Z,35.03
2023-04-11T08:27:03.668Z,36.30
2023-04-11T08:28:06.161Z,36.74
2023-04-11T08:29:11.388Z,35.59
2023-04-11T08:30:13.966Z,35.44
2023-04-11T08:31:16.243Z,35.28
2023-04-11T08:32:18.204Z,35.71
2023-04-11T08:33:23.349Z,35.86
2023-04-11T08:34:25.495Z,35.57
2023-04-11T08:35:27.834Z,35.42
2023-04-11T08:36:30.157Z,36.22
2023-04-11T08:37:33.379Z,34.88
2023-04-11T08:38:36.584Z,34.38
2023-04-11T08:39:38.449Z,33.68
2023-04-11T08:40:40.316Z,34.30
2023-04-11T08:41:42.583Z,33.65
2023-04-11T08:42:44.899Z,33.23
2023-04-11T08:43:47.996Z,34.02
2023-04-11T08:44:58.148Z,33.44
2023-04-11T08:46:04.210Z,32.32
2023-04-11T08:47:06.695Z,30.79
2023-04-11T08:48:12.384Z,30.33
2023-04-11T08:49:14.405Z,30.81
2023-04-11T08:50:16.233Z,30.61
2023-04-11T08:51:23.132Z,30.49
2023-04-11T08:52:25.935Z,31.11
2023-04-11T08:53:30.210Z,31.58
2023-04-11T08:54:32.013Z,31.11
2023-04-11T08:55:34.367Z,31.87
2023-04-11T08:56:42.175Z,31.63
2023-04-11T08:57:44.065Z,32.12
2023-04-11T08:58:48.120Z,31.63
2023-04-11T08:59:53.399Z,33.06
2023-04-11T09:00:55.389Z,33.34
2023-04-11T09:02:09.309Z,32.22
2023-04-11T09:03:13.341Z,32.39
2023-04-11T09:04:15.377Z,32.14
2023-04-11T09:05:28.593Z,32.51
2023-04-11T09:06:31.096Z,32.47
2023-04-11T09:07:48.378Z,31.50
2023-04-11T09:08:50.954Z,31.82
2023-04-11T09:09:52.787Z,32.96
2023-04-11T09:11:01.389Z,33.81
2023-04-11T09:12:04.366Z,34.48
2023-04-11T09:13:26.564Z,34.76
2023-04-11T09:14:29.200Z,34.28
2023-04-11T09:15:31.901Z,34.07
2023-04-11T09:16:34.213Z,34.29
2023-04-11T09:17:42.513Z,35.22
2023-04-11T09:18:47.071Z,34.44
2023-04-11T09:19:49.599Z,34.79
2023-04-11T09:21:02.987Z,34.85
2023-04-11T09:22:07.748Z,33.94
2023-04-11T09:23:22.266Z,34.13
2023-04-11T09:24:25.750Z,34.25
2023-04-11T09:25:28.320Z,34.31
2023-04-11T09:26:30.882Z,34.97
2023-04-11T09:27:32.754Z,35.83
2023-04-11T09:28:54.865Z,37.65
2023-04-11T09:29:56.998Z,36.23
2023-04-11T09:30:58.811Z,36.42
2023-04-11T09:32:00.768Z,36.57
2023-04-11T09:33:22.779Z,35.07
2023-04-11T09:34:27.552Z,34.50
2023-04-11T09:35:29.736Z,34.19
2023-04-11T09:36:31.601Z,33.80
2023-04-11T09:37:57.963Z,34.31
2023-04-11T09:39:00.246Z,34.49
2023-04-11T09:40:03.463Z,33.79
2023-04-11T09:41:06.140Z,34.43
2023-04-11T09:42:28.361Z,35.35
2023-04-11T09:43:50.518Z,35.44
2023-04-11T09:44:53.248Z,34.73
2023-04-11T09:46:11.783Z,35.17
2023-04-11T09:47:13.785Z,35.57
2023-04-11T09:48:16.501Z,34.65
2023-04-11T09:49:18.478Z,34.15
2023-04-11T09:50:20.962Z,33.85
2023-04-11T09:52:30.824Z,33.42
2023-04-11T09:53:35.275Z,33.44
2023-04-11T09:54:37.875Z,34.35
2023-04-11T09:55:40.093Z,33.79
2023-04-11T09:56:42.935Z,34.58
2023-04-11T09:57:46.988Z,35.65
2023-04-11T09:58:50.016Z,34.55
2023-04-11T09:59:53.564Z,34.01
2023-04-11T10:00:56.692Z,34.00
2023-04-11T10:01:58.992Z,34.61
2023-04-11T10:03:01.359Z,34.47
2023-04-11T10:04:04.637Z,34.37
2023-04-11T10:05:08.438Z,35.08
2023-04-11T10:06:16.565Z,34.85
2023-04-11T10:07:19.697Z,34.33
2023-04-11T10:08:32.738Z,34.68
2023-04-11T10:09:39.685Z,34.83
2023-04-11T10:10:44.174Z,34.96
2023-04-11T10:11:49.243Z,34.29
2023-04-11T10:12:51.753Z,34.36
2023-04-11T10:13:58.111Z,33.65
2023-04-11T10:15:08.407Z,34.11
2023-04-11T10:16:15.993Z,34.61
2023-04-11T10:17:22.776Z,34.12
2023-04-11T10:18:27.423Z,33.79
2023-04-11T10:19:29.314Z,33.93
2023-04-11T10:20:50.984Z,33.82
2023-04-11T10:21:53.112Z,34.21
2023-04-11T10:22:59.313Z,34.12
2023-04-11T10:24:09.947Z,34.56
2023-04-11T10:25:15.512Z,34.88
2023-04-11T10:27:07.716Z,35.36
2023-04-11T10:28:30.939Z,34.98
2023-04-11T10:29:34.889Z,35.62
2023-04-11T10:30:46.245Z,35.03
2023-04-11T10:32:20.789Z,35.12
2023-04-11T10:33:26.109Z,35.02
2023-04-11T10:34:27.883Z,35.22
2023-04-11T10:35:30.965Z,34.99
2023-04-11T10:37:06.305Z,36.03
2023-04-11T10:38:47.993Z,35.99
2023-04-11T10:40:00.726Z,35.69
2023-04-11T10:41:25.038Z,35.19
2023-04-11T10:42:55.252Z,35.14
2023-04-11T10:44:23.551Z,35.01
2023-04-11T10:49:05.116Z,36.14
2023-04-11T10:50:28.897Z,36.14
2023-04-11T10:51:34.767Z,35.88
2023-04-11T10:52:38.431Z,35.76
2023-04-11T10:53:40.984Z,35.62
2023-04-11T10:54:44.630Z,36.03
2023-04-11T10:55:48.693Z,36.14
2023-04-11T10:56:55.158Z,35.94
2023-04-11T10:58:11.468Z,35.88
2023-04-11T10:59:32.083Z,35.10
2023-04-11T11:00:52.475Z,35.21
2023-04-11T11:01:55.954Z,35.12
2023-04-11T11:02:58.392Z,35.27
2023-04-11T11:04:00.995Z,35.20
2023-04-11T11:05:15.070Z,35.49
2023-04-11T11:06:17.215Z,35.44
2023-04-11T11:07:19.050Z,35.76
2023-04-11T11:08:30.545Z,35.92
2023-04-11T11:09:33.451Z,35.56
2023-04-11T11:10:36.941Z,36.42
2023-04-11T11:11:38.712Z,35.65
2023-04-11T11:12:56.141Z,35.20
2023-04-11T11:14:01.709Z,35.47
2023-04-11T11:15:13.477Z,35.61
2023-04-11T11:16:17.792Z,35.89
2023-04-11T11:17:19.746Z,35.30
2023-04-11T11:18:22.826Z,35.29
2023-04-11T11:19:24.679Z,35.42
2023-04-11T11:20:26.473Z,35.53
2023-04-11T11:21:30.121Z,35.51
2023-04-11T11:22:31.915Z,35.58
2023-04-11T11:23:36.085Z,36.14
2023-04-11T11:24:38.457Z,36.10
2023-04-11T11:25:40.386Z,36.11
2023-04-11T11:26:44.010Z,36.17
2023-04-11T11:27:46.140Z,35.59
2023-04-11T11:28:48.966Z,35.00
2023-04-11T11:29:51.563Z,35.14
2023-04-11T11:30:57.638Z,35.12
2023-04-11T11:32:00.449Z,35.13
2023-04-11T11:33:22.407Z,34.91
2023-04-11T11:34:31.516Z,34.80
2023-04-11T11:35:33.174Z,34.95
2023-04-11T11:36:39.074Z,35.17
2023-04-11T11:37:41.944Z,35.06
2023-04-11T11:38:47.158Z,34.71
2023-04-11T11:39:49.929Z,34.60
2023-04-11T11:40:52.307Z,34.41
2023-04-11T11:41:54.534Z,34.92
2023-04-11T11:42:56.345Z,34.78
2023-04-11T11:43:59.363Z,35.18
2023-04-11T11:45:20.554Z,35.24
2023-04-11T11:46:22.445Z,35.10
2023-04-11T11:47:25.835Z,35.01
2023-04-11T11:48:30.509Z,35.48
2023-04-11T11:49:52.646Z,34.99
2023-04-11T11:50:56.595Z,35.04
2023-04-11T11:51:58.582Z,35.58
2023-04-11T11:53:19.677Z,35.69
2023-04-11T11:54:22.959Z,35.66
2023-04-11T11:55:24.903Z,35.60
2023-04-11T11:56:26.786Z,35.81
2023-04-11T11:57:30.880Z,35.53
2023-04-11T11:58:43.540Z,35.58
2023-04-11T11:59:45.732Z,35.73
2023-04-11T12:00:50.375Z,36.03
2023-04-11T12:01:52.512Z,36.09
2023-04-11T12:06:45.990Z,35.77
2023-04-11T12:07:54.890Z,35.89
2023-04-11T12:09:06.071Z,36.00
2023-04-11T12:10:11.988Z,35.67
2023-04-11T12:11:16.870Z,35.81
2023-04-11T12:12:25.458Z,35.82
2023-04-11T12:13:37.559Z,35.77
2023-04-11T12:14:40.202Z,36.01
2023-04-11T12:15:46.832Z,35.45
2023-04-11T12:16:50.370Z,35.03
2023-04-11T12:17:54.174Z,34.90
2023-04-11T12:19:01.142Z,35.01
2023-04-11T12:20:18.758Z,34.93
2023-04-11T12:21:21.066Z,34.69
2023-04-11T12:22:22.968Z,35.01
2023-04-11T12:23:24.746Z,34.67
2023-04-11T12:24:26.755Z,34.26
2023-04-11T12:25:28.796Z,34.54
2023-04-11T12:26:30.683Z,34.72
2023-04-11T12:27:36.697Z,34.34
2023-04-11T12:28:43.545Z,34.68
2023-04-11T12:29:46.767Z,35.03
2023-04-11T12:30:48.661Z,34.61
2023-04-11T12:31:50.811Z,34.47
2023-04-11T12:32:52.980Z,34.56
2023-04-11T12:33:55.300Z,34.79
2023-04-11T12:34:57.458Z,34.63
2023-04-11T12:35:59.287Z,34.40
2023-04-11T12:37:01.163Z,33.74
2023-04-11T12:38:04.258Z,33.50
2023-04-11T12:39:07.331Z,33.94
2023-04-11T12:40:12.176Z,34.32
2023-04-11T12:41:31.735Z,33.78
2023-04-11T12:42:39.049Z,33.55
2023-04-11T12:43:47.486Z,33.29
2023-04-11T12:44:50.928Z,33.12
2023-04-11T12:45:53.321Z,33.21
2023-04-11T12:46:55.190Z,33.20
2023-04-11T12:47:57.102Z,33.51
2023-04-11T12:49:00.852Z,33.17
2023-04-11T12:50:03.689Z,32.83
2023-04-11T12:51:05.890Z,32.77
2023-04-11T12:52:11.143Z,32.53
2023-04-11T12:53:12.930Z,32.77
2023-04-11T12:54:18.708Z,33.65
2023-04-11T12:55:21.764Z,33.50
2023-04-11T12:56:23.776Z,33.17
2023-04-11T12:57:25.967Z,33.06
2023-04-11T12:58:28.736Z,32.82
2023-04-11T12:59:32.333Z,33.14
2023-04-11T13:00:34.515Z,33.01
2023-04-11T13:01:37.046Z,32.95
2023-04-11T13:02:43.799Z,32.55
2023-04-11T13:03:46.936Z,32.20
2023-04-11T13:04:55.006Z,32.11
2023-04-11T13:05:57.013Z,32.25
2023-04-11T13:07:02.618Z,32.08
2023-04-11T13:08:04.754Z,32.38
2023-04-11T13:09:07.806Z,32.13
2023-04-11T13:10:10.440Z,32.10
2023-04-11T13:11:12.258Z,31.99
2023-04-11T13:12:14.414Z,31.69
2023-04-11T13:13:18.428Z,31.78
2023-04-11T13:14:21.060Z,31.88
2023-04-11T13:15:25.553Z,32.28
2023-04-11T13:16:27.415Z,32.23
2023-04-11T13:17:29.231Z,31.99
2023-04-11T13:18:31.131Z,32.24
2023-04-11T13:19:33.190Z,32.62
2023-04-11T13:20:35.118Z,32.43
2023-04-11T13:21:37.432Z,32.37
2023-04-11T13:22:43.507Z,32.70
2023-04-11T13:23:45.932Z,32.97
2023-04-11T13:24:47.726Z,33.17
2023-04-11T13:25:49.681Z,33.06
2023-04-11T13:26:51.569Z,33.27
2023-04-11T13:27:53.473Z,33.03
2023-04-11T13:28:56.071Z,33.02
2023-04-11T13:29:58.182Z,32.86
2023-04-11T13:31:00.125Z,33.61
2023-04-11T13:32:01.999Z,33.20
2023-04-11T13:33:05.516Z,33.00
2023-04-11T13:34:07.509Z,33.28
2023-04-11T13:35:09.582Z,33.24
2023-04-11T13:36:11.589Z,32.88
2023-04-11T13:37:13.453Z,32.87
2023-04-11T13:38:15.399Z,32.68
2023-04-11T13:39:19.466Z,32.76
2023-04-11T13:40:21.302Z,32.74
2023-04-11T13:41:24.182Z,32.22
2023-04-11T13:42:26.124Z,32.23
2023-04-11T13:43:28.449Z,32.10
2023-04-11T13:44:30.533Z,32.07
2023-04-11T13:45:32.496Z,32.20
2023-04-11T13:46:34.602Z,31.93
2023-04-11T13:47:38.762Z,31.78
2023-04-11T13:48:41.095Z,32.21
2023-04-11T13:49:43.236Z,32.02
2023-04-11T13:50:45.124Z,32.58
2023-04-11T13:51:46.956Z,32.14
2023-04-11T13:52:48.778Z,31.91
2023-04-11T13:53:50.815Z,32.22
2023-04-11T13:54:52.662Z,32.53
2023-04-11T13:55:55.038Z,32.38
2023-04-11T13:56:56.957Z,32.06
2023-04-11T13:57:58.795Z,32.06
2023-04-11T13:59:00.698Z,32.22
2023-04-11T14:00:06.821Z,32.53
2023-04-11T14:01:08.779Z,32.03
2023-04-11T14:02:11.107Z,31.90
2023-04-11T14:03:13.207Z,31.40
2023-04-11T14:04:15.706Z,32.37
2023-04-11T14:05:17.920Z,32.13
2023-04-11T14:06:19.842Z,31.78
2023-04-11T14:07:21.812Z,31.74
2023-04-11T14:08:23.655Z,31.80
2023-04-11T14:09:26.180Z,31.83
2023-04-11T14:10:28.245Z,31.54
2023-04-11T14:11:29.976Z,31.54
2023-04-11T14:12:31.831Z,32.03
2023-04-11T14:13:33.762Z,31.41
2023-04-11T14:14:37.196Z,31.50
2023-04-11T14:15:39.127Z,31.74
2023-04-11T14:16:41.183Z,31.55
2023-04-11T14:17:44.067Z,31.54
2023-04-11T14:18:46.009Z,31.73
2023-04-11T14:19:47.963Z,31.73
2023-04-11T14:20:49.950Z,31.78
2023-04-11T14:21:52.067Z,31.83
2023-04-11T14:22:56.360Z,31.98
2023-04-11T14:24:02.291Z,31.72
2023-04-11T14:25:05.657Z,31.58
2023-04-11T14:26:07.558Z,31.85
2023-04-11T14:27:09.734Z,32.03
2023-04-11T14:28:12.055Z,32.21
2023-04-11T14:29:14.263Z,32.26
2023-04-11T14:30:16.974Z,31.78
2023-04-11T14:31:25.004Z,31.72
2023-04-11T14:32:27.989Z,31.69
2023-04-11T14:33:31.940Z,31.77
2023-04-11T14:35:02.555Z,31.64
2023-04-11T14:36:07.417Z,31.71
2023-04-11T14:37:09.670Z,32.40
2023-04-11T14:38:11.644Z,32.33
2023-04-11T14:39:14.094Z,32.27
2023-04-11T14:40:17.726Z,32.67
2023-04-11T14:41:19.723Z,34.91
2023-04-11T14:42:21.831Z,33.62
2023-04-11T14:43:27.422Z,32.71
2023-04-11T14:44:29.868Z,32.95
2023-04-11T14:45:32.180Z,32.64
2023-04-11T14:46:35.668Z,32.89
2023-04-11T14:47:40.035Z,32.73
2023-04-11T14:48:41.868Z,32.67
2023-04-11T14:49:44.116Z,35.08
2023-04-11T14:50:48.633Z,32.76
2023-04-11T14:52:07.034Z,32.96
2023-04-11T14:53:09.357Z,32.45
2023-04-11T14:54:11.570Z,32.68
2023-04-11T14:55:13.496Z,32.84
2023-04-11T14:56:15.658Z,33.03
2023-04-11T14:57:52.363Z,33.19
2023-04-11T14:58:54.859Z,33.45
2023-04-11T14:59:59.556Z,33.70
2023-04-11T15:01:01.471Z,33.51
2023-04-11T15:02:05.366Z,34.19
2023-04-11T15:03:10.793Z,33.59
2023-04-11T15:04:13.329Z,33.62
2023-04-11T15:05:18.102Z,34.01
2023-04-11T15:06:21.583Z,34.37
2023-04-11T15:07:23.502Z,34.23
2023-04-11T15:08:25.600Z,34.27
2023-04-11T15:09:28.185Z,34.53
2023-04-11T15:10:30.753Z,34.89
2023-04-11T15:11:33.592Z,34.89
2023-04-11T15:12:36.455Z,34.94
2023-04-11T15:13:41.274Z,34.56
2023-04-11T15:15:25.378Z,34.43
2023-04-11T15:16:27.767Z,34.45
2023-04-11T15:17:42.668Z,34.75
2023-04-11T15:18:46.121Z,34.15
2023-04-11T15:19:48.264Z,34.38
2023-04-11T15:20:51.080Z,34.47
2023-04-11T15:21:52.882Z,34.81
2023-04-11T15:23:17.602Z,34.71
2023-04-11T15:24:24.759Z,34.69
2023-04-11T15:25:27.444Z,35.64
2023-04-11T15:26:30.150Z,35.07
2023-04-11T15:27:32.515Z,34.77
2023-04-11T15:28:38.639Z,34.95
2023-04-11T15:30:35.049Z,34.90
2023-04-11T15:32:55.059Z,34.81
2023-04-11T15:34:05.266Z,34.63
2023-04-11T15:37:37.568Z,35.01
2023-04-11T15:38:40.057Z,36.62
2023-04-11T15:39:42.370Z,35.02
2023-04-11T15:40:57.124Z,35.55
2023-04-11T15:42:32.571Z,35.66
2023-04-11T15:45:52.424Z,35.09
2023-04-11T15:46:56.162Z,35.03
2023-04-11T15:48:25.499Z,35.15
2023-04-11T15:50:21.622Z,35.12
2023-04-11T15:51:28.559Z,35.54
2023-04-11T15:52:33.881Z,35.47
2023-04-11T15:53:36.909Z,35.46
2023-04-11T15:54:41.003Z,35.50
2023-04-11T15:55:46.191Z,35.58
2023-04-11T15:56:51.552Z,35.69
2023-04-11T15:57:55.209Z,36.53
2023-04-11T15:58:57.536Z,35.85
2023-04-11T16:00:01.299Z,36.12
2023-04-11T16:01:38.190Z,35.80
2023-04-11T16:02:45.894Z,35.97
2023-04-11T16:03:50.365Z,36.03
2023-04-11T16:04:54.622Z,36.09
2023-04-11T16:05:59.961Z,36.01
2023-04-11T16:07:02.791Z,35.89
2023-04-11T16:08:14.260Z,35.97
2023-04-11T16:09:21.629Z,36.22
2023-04-11T16:10:25.695Z,35.80
2023-04-11T16:11:32.079Z,36.08
2023-04-11T16:12:38.467Z,35.73
2023-04-11T16:13:44.135Z,36.26
2023-04-11T16:14:46.451Z,35.94
2023-04-11T16:15:52.142Z,36.33
2023-04-11T16:16:54.384Z,36.35
2023-04-11T16:17:56.329Z,36.37
2023-04-11T16:18:58.174Z,35.97
2023-04-11T16:20:02.487Z,36.66
2023-04-11T16:21:12.565Z,36.66
2023-04-11T16:22:14.378Z,36.37
2023-04-11T16:23:18.810Z,36.21
2023-04-11T16:24:21.366Z,36.85
2023-04-11T16:25:23.146Z,36.85
2023-04-11T16:26:27.020Z,36.55
2023-04-11T16:27:29.263Z,36.48
2023-04-11T16:28:31.067Z,36.70
2023-04-11T16:29:35.276Z,37.03
2023-04-11T16:30:37.390Z,36.76
2023-04-11T16:31:39.386Z,36.92
2023-04-11T16:32:43.064Z,37.04
2023-04-11T16:33:47.906Z,36.74
2023-04-11T16:34:52.053Z,37.21
2023-04-11T16:35:53.820Z,36.74
2023-04-11T16:36:58.589Z,36.34
2023-04-11T16:38:00.713Z,36.48
2023-04-11T16:39:04.261Z,36.23
2023-04-11T16:40:11.495Z,36.42
2023-04-11T16:41:16.385Z,36.58
2023-04-11T16:42:18.923Z,36.78
2023-04-11T16:43:20.853Z,36.77
2023-04-11T16:44:38.755Z,36.45
2023-04-11T16:45:50.751Z,36.56
2023-04-11T16:46:58.125Z,36.96
2023-04-11T16:48:00.509Z,36.80
2023-04-11T16:49:02.402Z,36.80
2023-04-11T16:50:35.308Z,36.59
2023-04-11T16:53:14.308Z,36.40
2023-04-11T16:54:27.065Z,37.25
2023-04-11T16:55:28.957Z,36.78
2023-04-11T16:56:35.630Z,36.56
2023-04-11T16:58:13.896Z,36.33
2023-04-11T17:05:10.901Z,37.07
2023-04-11T17:08:03.520Z,37.42
2023-04-11T17:09:20.223Z,37.29
2023-04-11T17:33:28.643Z,40.35
2023-04-11T17:34:57.989Z,40.37
2023-04-11T17:36:06.213Z,39.97
2023-04-11T17:37:10.364Z,40.94
2023-04-11T17:40:44.630Z,41.01
2023-04-11T17:43:03.360Z,41.25
2023-04-11T17:44:31.019Z,41.51
2023-04-11T17:46:09.105Z,41.76
2023-04-11T17:47:19.962Z,41.57
2023-04-11T17:48:30.054Z,41.48
2023-04-11T17:50:08.051Z,41.62
2023-04-11T17:51:21.252Z,41.56
2023-04-11T17:52:41.782Z,42.24
2023-04-11T17:54:05.073Z,42.48
2023-04-11T17:56:29.299Z,42.58
2023-04-11T17:58:14.136Z,42.91
2023-04-11T18:00:48.347Z,42.62
2023-04-11T18:13:53.824Z,43.91
2023-04-11T18:15:07.166Z,44.56
2023-04-11T18:18:49.914Z,44.16
2023-04-11T18:28:45.953Z,44.48
2023-04-11T18:31:15.715Z,44.71
2023-04-11T18:34:38.544Z,44.79
2023-04-11T18:41:02.204Z,45.27
2023-04-11T18:45:25.985Z,45.29
2023-04-11T18:46:38.294Z,45.34
2023-04-11T18:48:23.309Z,45.30
2023-04-11T18:54:24.755Z,46.06
2023-04-11T19:04:05.968Z,46.72
2023-04-11T19:08:35.162Z,47.16
2023-04-11T19:09:39.322Z,47.00
2023-04-11T19:10:47.397Z,47.40
2023-04-11T19:11:52.638Z,47.48
2023-04-11T19:16:02.575Z,47.25
2023-04-11T19:17:06.403Z,47.85
2023-04-11T19:18:10.698Z,48.39
2023-04-11T19:19:13.886Z,48.19
2023-04-11T19:20:26.683Z,48.56
2023-04-11T19:21:29.695Z,48.53
2023-04-11T19:22:32.992Z,48.88
2023-04-11T19:23:40.092Z,49.50
2023-04-11T19:24:50.977Z,48.73
2023-04-11T19:26:06.286Z,48.52
2023-04-11T19:27:24.679Z,48.82
2023-04-11T19:28:29.519Z,49.01
2023-04-11T19:29:35.764Z,48.95
2023-04-11T19:30:50.391Z,48.98
2023-04-11T19:31:55.603Z,48.95
2023-04-11T19:32:59.039Z,49.08
2023-04-11T19:34:06.470Z,49.50
2023-04-11T19:36:03.634Z,50.20
2023-04-11T19:37:06.937Z,50.09
2023-04-11T19:39:53.585Z,50.17
2023-04-11T19:41:10.947Z,51.21
2023-04-11T19:42:16.877Z,51.62
2023-04-11T19:43:22.453Z,51.56
2023-04-11T19:44:55.406Z,52.01
2023-04-11T19:46:24.829Z,51.02
2023-04-11T19:47:28.611Z,50.10
2023-04-11T19:48:37.923Z,50.64
2023-04-11T19:49:44.057Z,50.33
2023-04-11T19:51:14.382Z,50.33
2023-04-11T19:52:25.152Z,51.39
2023-04-11T19:53:30.879Z,52.04
2023-04-11T19:54:43.012Z,50.69
2023-04-11T19:55:54.941Z,50.62
2023-04-11T19:56:59.260Z,50.90
2023-04-11T19:58:05.349Z,50.51
2023-04-11T19:59:13.091Z,50.05
2023-04-11T20:00:26.561Z,50.11
2023-04-11T20:01:32.900Z,50.17
2023-04-11T20:02:48.810Z,50.39
2023-04-11T20:04:04.662Z,50.37
2023-04-11T20:11:53.514Z,51.01
2023-04-11T20:13:00.951Z,52.43
2023-04-11T20:14:06.303Z,52.20
2023-04-11T20:15:15.456Z,51.37
2023-04-11T20:16:24.187Z,50.89
2023-04-11T20:17:29.810Z,52.18
2023-04-11T20:18:36.677Z,51.62
2023-04-11T20:19:47.278Z,51.48
2023-04-11T20:21:19.550Z,51.20
2023-04-11T20:22:23.725Z,51.85
2023-04-11T20:23:34.954Z,51.64
2023-04-11T20:24:42.540Z,51.49
2023-04-11T20:26:43.234Z,51.90
2023-04-11T20:30:29.873Z,52.41
2023-04-11T20:33:10.174Z,52.68
2023-04-11T20:34:13.718Z,52.94
2023-04-11T20:35:49.655Z,53.20
2023-04-11T20:37:01.189Z,53.52
2023-04-11T20:38:04.348Z,53.13
2023-04-11T20:39:08.075Z,53.80
2023-04-11T20:40:41.561Z,53.46
2023-04-11T20:41:51.159Z,53.29
2023-04-11T20:46:57.365Z,56.60
2023-04-11T20:48:02.603Z,57.57
2023-04-11T20:49:05.639Z,57.27
2023-04-11T20:50:16.319Z,56.25
2023-04-11T20:51:24.674Z,57.81
2023-04-11T20:52:33.197Z,56.63
2023-04-11T20:53:40.428Z,56.62
2023-04-11T20:54:46.891Z,56.20
2023-04-11T20:57:15.068Z,55.05
2023-04-11T20:58:21.522Z,55.52
2023-04-11T20:59:24.443Z,55.26
2023-04-11T21:00:53.411Z,59.06
2023-04-11T21:01:59.440Z,58.71
2023-04-11T21:03:06.110Z,57.41
2023-04-11T21:04:17.725Z,57.20
2023-04-11T21:15:02.098Z,68.13
2023-04-11T21:19:56.752Z,67.22
2023-04-11T21:21:28.677Z,69.18
2023-04-11T21:22:33.831Z,68.07
2023-04-11T21:23:49.890Z,69.90
2023-04-11T21:24:56.738Z,71.50
2023-04-11T21:26:06.502Z,72.20
2023-04-11T21:27:11.210Z,72.76
2023-04-11T21:29:32.567Z,71.80
2023-04-11T21:31:36.652Z,74.71
2023-04-11T21:32:44.140Z,74.71
2023-04-11T21:33:47.099Z,73.92
2023-04-11T21:34:51.861Z,75.48
2023-04-11T21:36:02.426Z,75.44
2023-04-11T21:37:08.502Z,77.74
2023-04-11T21:38:23.638Z,76.46
2023-04-11T21:39:28.860Z,76.23
2023-04-11T21:41:24.302Z,79.58
2023-04-11T21:42:32.091Z,80.48
2023-04-11T21:43:37.202Z,81.34
2023-04-11T21:44:43.257Z,82.29
2023-04-11T21:57:43.622Z,85.85
2023-04-11T21:58:46.973Z,85.96
2023-04-11T21:59:54.480Z,87.52
2023-04-11T22:01:49.593Z,87.77
2023-04-11T22:03:28.269Z,87.68
2023-04-11T22:04:51.346Z,87.79
2023-04-11T22:10:09.951Z,92.07
2023-04-11T22:14:49.813Z,93.31
2023-04-11T22:21:25.465Z,94.02
2023-04-11T22:22:57.855Z,92.93
2023-04-11T22:24:02.584Z,93.88
2023-04-11T22:25:09.104Z,94.61
2023-04-11T22:29:53.688Z,96.32
2023-04-11T22:38:35.811Z,99.04
2023-04-11T22:40:06.493Z,98.62
2023-04-11T22:44:39.907Z,100.00
2023-04-11T22:47:15.895Z,100.00